createdAt,value
2022-10-26T00:01:08.689Z,98448.38
2022-10-26T00:03:36.883Z,98436.88
2022-10-26T00:06:20.022Z,98427.25
2022-10-26T00:08:48.141Z,98427.06
2022-10-26T00:11:16.191Z,98433.03
2022-10-26T00:13:43.623Z,98433.88
2022-10-26T00:16:14.750Z,98423.50
2022-10-26T00:18:41.375Z,98423.19
2022-10-26T00:21:10.270Z,98423.94
2022-10-26T00:23:37.513Z,98420.09
2022-10-26T00:26:04.630Z,98415.38
2022-10-26T00:28:31.733Z,98424.25
2022-10-26T00:31:13.653Z,98424.16
2022-10-26T00:33:40.856Z,98426.50
2022-10-26T00:36:09.870Z,98415.97
2022-10-26T00:38:37.701Z,98419.16
2022-10-26T00:41:04.615Z,98425.25
2022-10-26T00:43:30.983Z,98423.06
2022-10-26T00:45:59.844Z,98424.84
2022-10-26T00:48:34.084Z,98416.66
2022-10-26T00:51:08.310Z,98417.31
2022-10-26T00:53:35.954Z,98420.47
2022-10-26T00:56:03.475Z,98412.91
2022-10-26T00:58:30.536Z,98416.50
2022-10-26T01:00:57.029Z,98415.66
2022-10-26T01:03:27.832Z,98427.56
2022-10-26T01:05:58.028Z,98423.44
2022-10-26T01:08:28.104Z,98420.72
2022-10-26T01:10:58.283Z,98418.81
2022-10-26T01:13:30.804Z,98417.97
2022-10-26T01:16:22.408Z,98411.78
2022-10-26T01:19:38.380Z,98412.72
2022-10-26T01:22:29.302Z,98414.00
2022-10-26T01:25:25.878Z,98421.53
2022-10-26T01:27:54.081Z,98423.25
2022-10-26T01:30:28.838Z,98423.06
2022-10-26T01:33:09.278Z,98420.44
2022-10-26T01:36:19.367Z,98417.63
2022-10-26T01:39:04.834Z,98406.91
2022-10-26T01:41:37.674Z,98395.84
2022-10-26T01:44:13.834Z,98396.28
2022-10-26T01:46:46.337Z,98390.91
2022-10-26T01:49:17.147Z,98384.50
2022-10-26T01:51:48.471Z,98380.19
2022-10-26T01:54:15.407Z,98383.56
2022-10-26T01:56:48.695Z,98386.91
2022-10-26T02:00:01.924Z,98382.72
2022-10-26T02:03:09.859Z,98384.53
2022-10-26T02:06:07.743Z,98385.44
2022-10-26T02:09:15.730Z,98388.41
2022-10-26T02:11:51.164Z,98378.50
2022-10-26T02:14:49.470Z,98373.13
2022-10-26T02:17:21.768Z,98371.13
2022-10-26T02:20:03.502Z,98376.41
2022-10-26T02:22:40.452Z,98376.00
2022-10-26T02:25:15.652Z,98367.34
2022-10-26T02:27:51.051Z,98376.94
2022-10-26T02:30:18.711Z,98369.69
2022-10-26T02:32:52.412Z,98365.66
2022-10-26T02:35:27.478Z,98365.06
2022-10-26T02:37:59.560Z,98354.94
2022-10-26T02:40:29.140Z,98350.97
2022-10-26T02:43:03.110Z,98349.50
2022-10-26T02:45:38.284Z,98346.34
2022-10-26T02:48:06.014Z,98338.94
2022-10-26T02:50:49.167Z,98338.53
2022-10-26T02:53:27.619Z,98334.81
2022-10-26T02:55:54.352Z,98330.59
2022-10-26T02:58:33.412Z,98329.44
2022-10-26T03:01:00.402Z,98343.13
2022-10-26T03:03:26.895Z,98340.69
2022-10-26T03:05:53.352Z,98335.72
2022-10-26T03:08:19.847Z,98343.50
2022-10-26T03:10:46.596Z,98335.31
2022-10-26T03:13:13.955Z,98335.81
2022-10-26T03:15:40.933Z,98334.97
2022-10-26T03:18:08.048Z,98328.66
2022-10-26T03:20:35.026Z,98321.19
2022-10-26T03:23:01.444Z,98332.78
2022-10-26T03:25:28.005Z,98324.56
2022-10-26T03:28:02.621Z,98332.56
2022-10-26T03:30:31.384Z,98331.09
2022-10-26T03:32:58.041Z,98340.16
2022-10-26T03:35:24.694Z,98342.44
2022-10-26T03:37:51.674Z,98346.13
2022-10-26T03:40:18.314Z,98340.34
2022-10-26T03:42:44.750Z,98342.88
2022-10-26T03:45:11.544Z,98336.56
2022-10-26T03:47:49.166Z,98338.84
2022-10-26T03:50:20.271Z,98333.53
2022-10-26T03:52:48.733Z,98334.78
2022-10-26T03:55:16.031Z,98331.31
2022-10-26T03:57:43.931Z,98335.00
2022-10-26T04:00:17.266Z,98328.88
2022-10-26T04:02:49.780Z,98332.34
2022-10-26T04:05:16.619Z,98343.22
2022-10-26T04:07:43.539Z,98345.88
2022-10-26T04:10:10.892Z,98338.63
2022-10-26T04:12:38.614Z,98334.84
2022-10-26T04:15:07.262Z,98345.31
2022-10-26T04:17:34.415Z,98340.44
2022-10-26T04:20:00.934Z,98335.81
2022-10-26T04:22:27.415Z,98334.75
2022-10-26T04:24:53.893Z,98336.63
2022-10-26T04:27:20.311Z,98336.50
2022-10-26T04:29:46.791Z,98337.06
2022-10-26T04:32:13.212Z,98330.59
2022-10-26T04:34:39.647Z,98336.50
2022-10-26T04:37:06.106Z,98332.75
2022-10-26T04:39:32.546Z,98333.59
2022-10-26T04:41:58.985Z,98339.13
2022-10-26T04:44:25.434Z,98334.16
2022-10-26T04:46:51.887Z,98334.69
2022-10-26T04:49:18.371Z,98330.75
2022-10-26T04:51:44.802Z,98332.44
2022-10-26T04:54:11.327Z,98331.81
2022-10-26T04:56:37.888Z,98328.41
2022-10-26T04:59:04.376Z,98334.50
2022-10-26T05:01:31.840Z,98342.41
2022-10-26T05:03:58.404Z,98337.97
2022-10-26T05:06:25.115Z,98332.66
2022-10-26T05:08:51.551Z,98326.81
2022-10-26T05:11:18.051Z,98338.47
2022-10-26T05:13:44.485Z,98342.34
2022-10-26T05:16:10.939Z,98338.03
2022-10-26T05:18:37.387Z,98338.94
2022-10-26T05:21:03.926Z,98342.22
2022-10-26T05:23:30.382Z,98348.72
2022-10-26T05:25:56.898Z,98356.41
2022-10-26T05:28:23.410Z,98345.50
2022-10-26T05:30:49.868Z,98357.00
2022-10-26T05:33:16.450Z,98348.38
2022-10-26T05:35:43.261Z,98341.38
2022-10-26T05:38:15.322Z,98344.97
2022-10-26T05:40:49.291Z,98337.41
2022-10-26T05:43:15.811Z,98336.16
2022-10-26T05:45:42.370Z,98342.56
2022-10-26T05:48:08.820Z,98336.59
2022-10-26T05:50:35.463Z,98332.66
2022-10-26T05:53:02.188Z,98330.28
2022-10-26T05:55:29.210Z,98328.88
2022-10-26T05:57:56.209Z,98332.00
2022-10-26T06:00:27.115Z,98337.84
2022-10-26T06:03:17.871Z,98338.59
2022-10-26T06:05:57.299Z,98329.22
2022-10-26T06:08:27.586Z,98333.28
2022-10-26T06:10:56.943Z,98334.59
2022-10-26T06:13:23.739Z,98339.22
2022-10-26T06:16:33.578Z,98341.59
2022-10-26T06:19:22.689Z,98337.66
2022-10-26T06:22:17.450Z,98336.88
2022-10-26T06:25:04.510Z,98336.78
2022-10-26T06:27:48.064Z,98350.38
2022-10-26T06:30:14.528Z,98343.91
2022-10-26T06:32:46.243Z,98334.81
2022-10-26T06:35:22.750Z,98349.88
2022-10-26T06:37:50.907Z,98355.66
2022-10-26T06:40:19.094Z,98355.44
2022-10-26T06:42:46.042Z,98352.34
2022-10-26T06:45:15.601Z,98356.41
2022-10-26T06:47:48.007Z,98354.00
2022-10-26T06:50:40.165Z,98349.44
2022-10-26T06:56:13.246Z,98354.75
2022-10-26T06:58:41.150Z,98357.16
2022-10-26T07:01:11.444Z,98363.63
2022-10-26T07:03:38.296Z,98365.09
2022-10-26T07:06:06.080Z,98370.63
2022-10-26T07:08:32.890Z,98381.41
2022-10-26T07:10:59.412Z,98389.88
2022-10-26T07:13:25.838Z,98393.56
2022-10-26T07:15:52.284Z,98393.66
2022-10-26T07:18:18.743Z,98397.16
2022-10-26T07:20:45.197Z,98387.47
2022-10-26T07:23:11.866Z,98391.28
2022-10-26T07:25:40.267Z,98394.28
2022-10-26T07:28:10.248Z,98404.50
2022-10-26T07:30:39.706Z,98401.41
2022-10-26T07:33:14.359Z,98405.84
2022-10-26T07:35:41.427Z,98413.16
2022-10-26T07:38:08.815Z,98405.09
2022-10-26T07:40:37.054Z,98404.25
2022-10-26T07:43:04.167Z,98409.56
2022-10-26T07:45:30.832Z,98406.31
2022-10-26T07:47:57.928Z,98406.06
2022-10-26T07:50:25.384Z,98408.84
2022-10-26T07:52:52.070Z,98420.25
2022-10-26T07:55:19.275Z,98418.69
2022-10-26T07:57:47.523Z,98424.81
2022-10-26T08:00:17.528Z,98426.13
2022-10-26T08:02:44.028Z,98425.16
2022-10-26T08:05:10.511Z,98421.19
2022-10-26T08:07:42.627Z,98415.06
2022-10-26T08:10:10.957Z,98419.88
2022-10-26T08:12:37.731Z,98419.13
2022-10-26T08:15:05.530Z,98432.56
2022-10-26T08:17:32.112Z,98430.13
2022-10-26T08:19:58.994Z,98432.66
2022-10-26T08:22:25.954Z,98429.44
2022-10-26T08:24:52.383Z,98428.47
2022-10-26T08:27:18.847Z,98427.47
2022-10-26T08:29:45.339Z,98430.56
2022-10-26T08:32:11.816Z,98422.63
2022-10-26T08:34:38.297Z,98440.16
2022-10-26T08:37:04.758Z,98445.34
2022-10-26T08:39:31.213Z,98431.97
2022-10-26T08:42:12.341Z,98421.25
2022-10-26T08:44:47.635Z,98416.47
2022-10-26T08:47:20.745Z,98402.16
2022-10-26T08:50:05.634Z,98395.31
2022-10-26T08:52:53.103Z,98403.25
2022-10-26T08:55:28.939Z,98409.19
2022-10-26T08:57:56.751Z,98405.25
2022-10-26T09:00:27.045Z,98412.59
2022-10-26T09:02:54.254Z,98415.09
2022-10-26T09:05:43.244Z,98411.63
2022-10-26T09:08:18.095Z,98421.59
2022-10-26T09:11:13.474Z,98433.97
2022-10-26T09:14:04.616Z,98450.69
2022-10-26T09:17:22.859Z,98435.59
2022-10-26T09:20:20.212Z,98444.97
2022-10-26T09:23:10.434Z,98442.47
2022-10-26T09:25:41.508Z,98442.94
2022-10-26T09:28:17.793Z,98443.38
2022-10-26T09:30:46.479Z,98443.00
2022-10-26T09:33:19.819Z,98459.00
2022-10-26T09:36:00.188Z,98455.91
2022-10-26T09:38:41.734Z,98452.38
2022-10-26T09:41:33.183Z,98458.13
2022-10-26T09:44:19.108Z,98455.34
2022-10-26T09:47:28.933Z,98461.88
2022-10-26T09:50:06.840Z,98464.22
2022-10-26T09:52:33.471Z,98468.50
2022-10-26T09:54:59.979Z,98471.59
2022-10-26T09:57:26.771Z,98466.88
2022-10-26T09:59:55.582Z,98468.88
2022-10-26T10:02:48.826Z,98473.97
2022-10-26T10:05:39.065Z,98473.16
2022-10-26T10:08:23.989Z,98469.84
2022-10-26T10:11:03.583Z,98480.25
2022-10-26T10:13:34.308Z,98482.09
2022-10-26T10:16:22.942Z,98484.41
2022-10-26T10:18:59.122Z,98504.47
2022-10-26T10:21:39.013Z,98509.66
2022-10-26T10:24:27.339Z,98502.41
2022-10-26T10:27:15.465Z,98511.59
2022-10-26T10:30:01.407Z,98511.81
2022-10-26T10:32:35.634Z,98516.50
2022-10-26T10:35:25.062Z,98524.00
2022-10-26T10:37:52.598Z,98514.59
2022-10-26T10:40:27.047Z,98529.97
2022-10-26T10:43:11.141Z,98537.25
2022-10-26T10:45:38.564Z,98542.19
2022-10-26T10:48:26.078Z,98540.38
2022-10-26T10:51:12.961Z,98540.66
2022-10-26T10:53:50.433Z,98548.81
2022-10-26T10:56:40.234Z,98549.97
2022-10-26T10:59:51.239Z,98548.22
2022-10-26T11:02:32.250Z,98551.03
2022-10-26T11:05:35.828Z,98558.16
2022-10-26T11:08:12.816Z,98562.22
2022-10-26T11:10:48.538Z,98568.91
2022-10-26T11:13:31.300Z,98567.22
2022-10-26T11:16:05.872Z,98568.50
2022-10-26T11:18:44.164Z,98569.78
2022-10-26T11:21:31.565Z,98576.66
2022-10-26T11:24:39.183Z,98574.28
2022-10-26T11:27:20.183Z,98572.19
2022-10-26T11:30:13.616Z,98568.63
2022-10-26T11:33:18.127Z,98570.84
2022-10-26T11:35:55.071Z,98580.47
2022-10-26T11:38:56.272Z,98584.41
2022-10-26T11:41:55.618Z,98591.97
2022-10-26T11:44:40.999Z,98584.16
2022-10-26T11:47:18.372Z,98585.56
2022-10-26T11:50:02.368Z,98586.94
2022-10-26T11:52:43.204Z,98583.72
2022-10-26T11:55:11.564Z,98591.84
2022-10-26T11:57:40.243Z,98594.94
2022-10-26T12:00:27.781Z,98595.22
2022-10-26T12:03:08.552Z,98590.59
2022-10-26T12:05:48.395Z,98591.16
2022-10-26T12:08:24.654Z,98585.00
2022-10-26T12:11:19.937Z,98596.47
2022-10-26T12:14:19.466Z,98593.09
2022-10-26T12:16:54.770Z,98600.94
2022-10-26T12:19:35.072Z,98600.94
2022-10-26T12:22:02.775Z,98603.75
2022-10-26T12:24:35.431Z,98607.25
2022-10-26T12:27:05.125Z,98608.28
2022-10-26T12:29:49.195Z,98604.47
2022-10-26T12:32:30.708Z,98605.47
2022-10-26T12:35:01.357Z,98606.97
2022-10-26T12:37:37.698Z,98612.47
2022-10-26T12:40:33.075Z,98611.72
2022-10-26T12:43:14.556Z,98604.72
2022-10-26T12:45:46.600Z,98615.53
2022-10-26T12:48:39.800Z,98606.56
2022-10-26T12:51:27.754Z,98613.31
2022-10-26T12:54:03.829Z,98617.75
2022-10-26T12:57:17.926Z,98614.97
2022-10-26T13:00:05.771Z,98623.50
2022-10-26T13:03:15.470Z,98619.19
2022-10-26T13:06:23.403Z,98631.75
2022-10-26T13:08:58.631Z,98622.06
2022-10-26T13:11:46.059Z,98628.81
2022-10-26T13:14:51.348Z,98630.22
2022-10-26T13:17:31.531Z,98632.19
2022-10-26T13:20:05.624Z,98637.75
2022-10-26T13:22:33.252Z,98637.19
2022-10-26T13:25:06.238Z,98637.16
2022-10-26T13:27:32.601Z,98638.53
2022-10-26T13:30:04.858Z,98638.50
2022-10-26T13:32:40.089Z,98636.53
2022-10-26T13:35:14.376Z,98637.38
2022-10-26T13:37:49.478Z,98641.44
2022-10-26T13:40:20.789Z,98641.16
2022-10-26T13:43:06.015Z,98638.63
2022-10-26T13:45:53.595Z,98645.63
2022-10-26T13:48:35.207Z,98646.75
2022-10-26T13:51:13.521Z,98645.03
2022-10-26T13:53:59.811Z,98643.94
2022-10-26T13:56:43.841Z,98645.63
2022-10-26T13:59:13.395Z,98648.66
2022-10-26T14:01:40.291Z,98643.66
2022-10-26T14:04:18.547Z,98643.81
2022-10-26T14:06:51.435Z,98653.19
2022-10-26T14:09:20.831Z,98652.75
2022-10-26T14:12:00.685Z,98652.16
2022-10-26T14:14:34.339Z,98657.41
2022-10-26T14:17:02.178Z,98661.00
2022-10-26T14:19:33.831Z,98658.34
2022-10-26T14:22:01.057Z,98658.88
2022-10-26T14:24:46.845Z,98661.00
2022-10-26T14:27:27.858Z,98665.72
2022-10-26T14:30:21.198Z,98666.25
2022-10-26T14:32:42.167Z,98663.19
2022-10-26T14:35:16.116Z,98676.13
2022-10-26T14:37:56.279Z,98679.09
2022-10-26T14:40:29.818Z,98679.63
2022-10-26T14:43:00.455Z,98686.78
2022-10-26T14:45:51.578Z,98682.59
2022-10-26T14:48:33.894Z,98682.88
2022-10-26T14:51:25.901Z,98697.38
2022-10-26T14:53:59.385Z,98692.88
2022-10-26T14:56:40.646Z,98695.41
2022-10-26T14:59:20.617Z,98700.66
2022-10-26T15:02:02.295Z,98698.81
2022-10-26T15:04:42.098Z,98704.72
2022-10-26T15:07:11.511Z,98706.25
2022-10-26T15:09:45.394Z,98712.31
2022-10-26T15:12:36.710Z,98722.25
2022-10-26T15:15:15.388Z,98715.84
2022-10-26T15:17:52.085Z,98712.31
2022-10-26T15:20:23.353Z,98714.28
2022-10-26T15:22:57.342Z,98709.81
2022-10-26T15:25:28.691Z,98719.75
2022-10-26T15:28:08.642Z,98717.97
2022-10-26T15:30:35.192Z,98722.41
2022-10-26T15:33:21.773Z,98717.66
2022-10-26T15:35:48.412Z,98713.06
2022-10-26T15:38:15.437Z,98713.78
2022-10-26T15:40:43.851Z,98715.44
2022-10-26T15:43:12.308Z,98721.22
2022-10-26T15:45:52.399Z,98725.25
2022-10-26T15:48:28.988Z,98733.94
2022-10-26T15:50:56.251Z,98723.00
2022-10-26T15:53:30.922Z,98729.56
2022-10-26T15:56:00.008Z,98732.50
2022-10-26T15:58:31.119Z,98734.19
2022-10-26T16:00:57.651Z,98740.91
2022-10-26T16:03:26.034Z,98739.59
2022-10-26T16:06:02.116Z,98750.47
2022-10-26T16:08:31.493Z,98754.53
2022-10-26T16:10:58.212Z,98754.78
2022-10-26T16:13:24.698Z,98765.25
2022-10-26T16:15:51.146Z,98774.59
2022-10-26T16:18:17.609Z,98769.09
2022-10-26T16:20:46.226Z,98771.47
2022-10-26T16:23:13.078Z,98773.53
2022-10-26T16:25:45.910Z,98776.72
2022-10-26T16:28:16.562Z,98778.94
2022-10-26T16:30:43.648Z,98780.03
2022-10-26T16:33:10.262Z,98781.66
2022-10-26T16:35:36.722Z,98789.31
2022-10-26T16:38:03.390Z,98796.25
2022-10-26T16:40:29.863Z,98792.97
2022-10-26T16:42:56.295Z,98804.72
2022-10-26T16:45:22.856Z,98802.34
2022-10-26T16:47:49.812Z,98806.66
2022-10-26T16:50:16.689Z,98814.88
2022-10-26T16:52:43.148Z,98808.50
2022-10-26T16:55:09.876Z,98818.78
2022-10-26T16:57:37.490Z,98823.84
2022-10-26T17:00:06.625Z,98831.06
2022-10-26T17:02:33.240Z,98836.03
2022-10-26T17:05:02.725Z,98826.50
2022-10-26T17:07:32.560Z,98831.13
2022-10-26T17:09:59.042Z,98836.19
2022-10-26T17:14:58.769Z,98860.53
2022-10-26T17:17:25.256Z,98863.63
2022-10-26T17:19:51.701Z,98867.25
2022-10-26T17:22:18.157Z,98865.56
2022-10-26T17:24:44.654Z,98871.84
2022-10-26T17:27:11.254Z,98870.16
2022-10-26T17:29:37.733Z,98879.66
2022-10-26T17:32:04.277Z,98880.97
2022-10-26T17:34:30.778Z,98884.22
2022-10-26T17:36:57.230Z,98890.94
2022-10-26T17:39:23.733Z,98894.31
2022-10-26T17:41:50.219Z,98904.25
2022-10-26T17:44:16.675Z,98905.56
2022-10-26T17:46:43.128Z,98919.81
2022-10-26T17:49:09.584Z,98924.88
2022-10-26T17:51:36.072Z,98923.16
2022-10-26T17:54:02.745Z,98927.72
2022-10-26T17:56:33.013Z,98932.88
2022-10-26T17:59:06.036Z,98937.41
2022-10-26T18:01:33.003Z,98941.75
2022-10-26T18:04:00.328Z,98953.41
2022-10-26T18:06:26.957Z,98953.16
2022-10-26T18:08:53.615Z,98959.00
2022-10-26T18:11:26.973Z,98953.00
2022-10-26T18:13:58.056Z,98962.44
2022-10-26T18:16:27.799Z,98967.41
2022-10-26T18:19:02.742Z,98971.94
2022-10-26T18:21:33.587Z,98978.31
2022-10-26T18:24:00.295Z,98974.50
2022-10-26T18:26:29.161Z,98992.72
2022-10-26T18:28:58.023Z,98988.91
2022-10-26T18:31:26.821Z,98991.03
2022-10-26T18:34:02.997Z,98992.22
2022-10-26T18:36:30.837Z,99002.69
2022-10-26T18:38:57.456Z,99000.16
2022-10-26T18:41:26.156Z,99005.22
2022-10-26T18:43:58.572Z,99002.38
2022-10-26T18:46:33.097Z,99005.63
2022-10-26T18:49:00.728Z,99003.22
2022-10-26T18:51:32.740Z,99001.50
2022-10-26T18:54:00.230Z,99010.22
2022-10-26T18:56:27.244Z,99012.09
2022-10-26T18:58:58.372Z,99015.59
2022-10-26T19:01:29.508Z,99018.78
2022-10-26T19:04:02.299Z,99023.09
2022-10-26T19:06:35.300Z,99028.72
2022-10-26T19:09:03.648Z,99025.97
2022-10-26T19:11:31.795Z,99027.44
2022-10-26T19:13:58.675Z,99029.97
2022-10-26T19:16:49.853Z,99038.13
2022-10-26T19:19:18.778Z,99048.06
2022-10-26T19:21:48.080Z,99046.59
2022-10-26T19:24:21.448Z,99052.50
2022-10-26T19:26:50.617Z,99056.31
2022-10-26T19:29:19.062Z,99053.03
2022-10-26T19:31:47.684Z,99056.41
2022-10-26T19:34:15.873Z,99062.84
2022-10-26T19:36:44.966Z,99064.03
2022-10-26T19:39:16.458Z,99069.53
2022-10-26T19:41:44.745Z,99072.25
2022-10-26T19:44:12.333Z,99067.16
2022-10-26T19:46:39.737Z,99070.03
2022-10-26T19:49:06.905Z,99075.09
2022-10-26T19:51:33.710Z,99079.63
2022-10-26T19:54:03.716Z,99085.13
2022-10-26T19:56:31.763Z,99083.63
2022-10-26T19:58:58.388Z,99091.19
2022-10-26T20:01:25.034Z,99100.25
2022-10-26T20:03:52.084Z,99092.19
2022-10-26T20:06:19.133Z,99096.50
2022-10-26T20:08:48.712Z,99098.72
2022-10-26T20:11:17.689Z,99089.22
2022-10-26T20:13:46.494Z,99095.03
2022-10-26T20:16:15.513Z,99104.63
2022-10-26T20:18:45.739Z,99106.53
2022-10-26T20:21:15.535Z,99094.38
2022-10-26T20:23:43.387Z,99102.41
2022-10-26T20:26:16.458Z,99109.41
2022-10-26T20:28:47.716Z,99109.84
2022-10-26T20:31:14.437Z,99109.47
2022-10-26T20:33:40.913Z,99113.09
2022-10-26T20:36:07.952Z,99116.94
2022-10-26T20:38:34.996Z,99116.59
2022-10-26T20:41:04.876Z,99115.28
2022-10-26T20:43:35.191Z,99113.25
2022-10-26T20:46:01.978Z,99117.56
2022-10-26T20:48:28.832Z,99116.91
2022-10-26T20:51:20.835Z,99117.22
2022-10-26T20:54:03.727Z,99116.84
2022-10-26T20:56:32.932Z,99120.97
2022-10-26T20:59:03.018Z,99117.56
2022-10-26T21:01:34.735Z,99121.34
2022-10-26T21:04:03.863Z,99121.81
2022-10-26T21:06:39.596Z,99129.47
2022-10-26T21:09:07.239Z,99117.63
2022-10-26T21:11:33.709Z,99130.03
2022-10-26T21:14:00.892Z,99129.66
2022-10-26T21:16:27.329Z,99127.59
2022-10-26T21:18:53.805Z,99136.72
2022-10-26T21:21:20.351Z,99144.53
2022-10-26T21:23:46.859Z,99140.97
2022-10-26T21:26:13.667Z,99144.34
2022-10-26T21:28:45.670Z,99137.41
2022-10-26T21:31:15.562Z,99141.16
2022-10-26T21:33:42.906Z,99147.94
2022-10-26T21:36:14.815Z,99146.16
2022-10-26T21:38:44.601Z,99148.50
2022-10-26T21:41:20.666Z,99152.63
2022-10-26T21:43:59.185Z,99156.97
2022-10-26T21:46:37.847Z,99158.41
2022-10-26T21:49:04.884Z,99159.25
2022-10-26T21:51:31.346Z,99151.56
2022-10-26T21:53:58.309Z,99155.88
2022-10-26T21:56:24.762Z,99156.69
2022-10-26T21:58:51.337Z,99157.25
2022-10-26T22:01:21.228Z,99162.06
2022-10-26T22:03:49.107Z,99165.16
2022-10-26T22:08:47.927Z,99165.09
2022-10-26T22:11:18.556Z,99170.25
2022-10-26T22:13:47.941Z,99176.09
2022-10-26T22:16:20.801Z,99180.63
2022-10-26T22:18:49.703Z,99174.66
2022-10-26T22:21:18.838Z,99169.84
2022-10-26T22:23:45.902Z,99174.84
2022-10-26T22:26:16.411Z,99185.09
2022-10-26T22:28:46.168Z,99173.22
2022-10-26T22:31:20.482Z,99172.25
2022-10-26T22:34:01.947Z,99172.84
2022-10-26T22:36:32.207Z,99164.47
2022-10-26T22:38:58.732Z,99167.16
2022-10-26T22:41:26.010Z,99176.72
2022-10-26T22:43:52.532Z,99186.69
2022-10-26T22:46:28.715Z,99183.03
2022-10-26T22:48:58.708Z,99186.44
2022-10-26T22:51:29.369Z,99190.22
2022-10-26T22:53:58.704Z,99191.84
2022-10-26T22:58:58.895Z,99193.50
2022-10-26T23:01:31.259Z,99191.28
2022-10-26T23:03:58.345Z,99200.19
2022-10-26T23:06:28.191Z,99194.53
2022-10-26T23:08:54.882Z,99188.25
2022-10-26T23:11:24.092Z,99189.00
2022-10-26T23:14:01.013Z,99189.78
2022-10-26T23:16:29.766Z,99195.53
2022-10-26T23:18:57.487Z,99196.38
2022-10-26T23:23:57.393Z,99207.94
2022-10-26T23:26:24.295Z,99197.91
2022-10-26T23:28:50.822Z,99204.44
2022-10-26T23:31:21.763Z,99206.72
2022-10-26T23:33:53.400Z,99216.25
2022-10-26T23:36:20.325Z,99216.56
2022-10-26T23:38:47.904Z,99221.00
2022-10-26T23:41:15.051Z,99216.09
2022-10-26T23:43:41.911Z,99212.34
2022-10-26T23:46:09.047Z,99214.53
2022-10-26T23:48:35.476Z,99218.63
2022-10-26T23:51:02.015Z,99214.88
2022-10-26T23:53:28.559Z,99220.47
2022-10-26T23:55:55.053Z,99216.31
2022-10-26T23:58:21.556Z,99223.34
